createdAt,value
2022-11-17T00:00:32.408Z,23.75
2022-11-17T00:03:00.501Z,28.05
2022-11-17T00:05:28.486Z,21.77
2022-11-17T00:07:56.533Z,22.50
2022-11-17T00:10:25.878Z,22.08
2022-11-17T00:13:11.386Z,20.47
2022-11-17T00:15:43.295Z,22.45
2022-11-17T00:18:28.516Z,21.60
2022-11-17T00:21:25.445Z,21.77
2022-11-17T00:23:53.783Z,20.73
2022-11-17T00:26:24.865Z,20.45
2022-11-17T00:28:54.817Z,20.58
2022-11-17T00:31:41.350Z,21.30
2022-11-17T00:34:12.379Z,20.67
2022-11-17T00:36:42.614Z,20.55
2022-11-17T00:41:41.345Z,19.67
2022-11-17T00:44:10.100Z,19.52
2022-11-17T00:46:38.770Z,19.80
2022-11-17T00:49:07.964Z,20.85
2022-11-17T00:51:36.648Z,18.63
2022-11-17T00:54:06.169Z,20.25
2022-11-17T00:56:34.106Z,16.75
2022-11-17T00:59:03.728Z,18.02
2022-11-17T01:01:32.340Z,18.00
2022-11-17T01:04:04.104Z,17.10
2022-11-17T01:06:34.253Z,17.30
2022-11-17T01:09:02.693Z,17.23
2022-11-17T01:11:30.672Z,15.80
2022-11-17T01:14:00.130Z,15.48
2022-11-17T01:16:30.896Z,16.45
2022-11-17T01:19:01.018Z,15.32
2022-11-17T01:21:30.293Z,14.95
2022-11-17T01:23:59.695Z,14.95
2022-11-17T01:26:29.561Z,14.27
2022-11-17T01:28:57.808Z,13.55
2022-11-17T01:31:28.157Z,14.13
2022-11-17T01:33:58.017Z,13.95
2022-11-17T01:36:28.180Z,13.27
2022-11-17T01:38:56.725Z,13.32
2022-11-17T01:41:26.443Z,12.70
2022-11-17T01:43:56.320Z,13.10
2022-11-17T01:46:31.105Z,13.25
2022-11-17T01:49:04.861Z,12.55
2022-11-17T01:51:36.150Z,12.48
2022-11-17T01:54:04.563Z,12.50
2022-11-17T01:56:38.881Z,11.10
2022-11-17T01:59:10.767Z,11.88
2022-11-17T02:01:55.713Z,10.90
2022-11-17T02:04:30.576Z,10.82
2022-11-17T02:07:04.244Z,10.93
2022-11-17T02:09:34.426Z,10.32
2022-11-17T02:14:31.852Z,10.27
2022-11-17T02:17:07.010Z,9.82
2022-11-17T02:19:41.257Z,9.63
2022-11-17T02:22:32.920Z,9.93
2022-11-17T02:25:28.027Z,9.80
2022-11-17T02:28:06.096Z,9.40
2022-11-17T02:30:39.665Z,10.52
2022-11-17T02:33:14.317Z,9.77
2022-11-17T02:35:50.619Z,10.23
2022-11-17T02:38:28.299Z,9.73
2022-11-17T02:41:06.061Z,9.88
2022-11-17T02:44:00.735Z,9.70
2022-11-17T02:46:31.691Z,10.45
2022-11-17T02:49:03.445Z,9.88
2022-11-17T02:51:34.172Z,9.90
2022-11-17T02:54:03.506Z,9.18
2022-11-17T02:56:31.467Z,9.43
2022-11-17T02:59:03.988Z,8.73
2022-11-17T03:01:52.040Z,8.88
2022-11-17T03:04:31.981Z,10.18
2022-11-17T03:07:12.961Z,9.38
2022-11-17T03:09:50.404Z,9.25
2022-11-17T03:12:24.403Z,9.38
2022-11-17T03:15:05.452Z,9.48
2022-11-17T03:17:38.347Z,9.82
2022-11-17T03:20:14.394Z,10.45
2022-11-17T03:22:49.774Z,10.18
2022-11-17T03:25:20.899Z,9.95
2022-11-17T03:27:52.811Z,9.10
2022-11-17T03:30:23.104Z,9.48
2022-11-17T03:35:26.936Z,9.05
2022-11-17T03:37:58.253Z,8.82
2022-11-17T03:40:29.042Z,9.80
2022-11-17T03:43:01.921Z,9.43
2022-11-17T03:45:34.980Z,9.38
2022-11-17T03:48:09.693Z,9.07
2022-11-17T03:50:42.383Z,9.48
2022-11-17T03:53:10.453Z,8.95
2022-11-17T03:55:47.434Z,8.10
2022-11-17T03:58:18.568Z,8.38
2022-11-17T04:00:52.638Z,8.38
2022-11-17T04:03:22.625Z,8.35
2022-11-17T04:05:50.794Z,8.15
2022-11-17T04:08:19.754Z,8.13
2022-11-17T04:11:05.048Z,8.38
2022-11-17T04:13:58.908Z,8.45
2022-11-17T04:16:28.249Z,8.85
2022-11-17T04:18:58.976Z,8.37
2022-11-17T04:21:27.246Z,8.20
2022-11-17T04:23:56.090Z,8.23
2022-11-17T04:26:41.520Z,8.73
2022-11-17T04:29:09.599Z,8.85
2022-11-17T04:31:39.018Z,9.40
2022-11-17T04:34:07.994Z,9.02
2022-11-17T04:36:40.278Z,9.25
2022-11-17T04:39:08.315Z,10.27
2022-11-17T04:41:54.058Z,9.57
2022-11-17T04:44:23.698Z,9.85
2022-11-17T04:46:53.225Z,10.73
2022-11-17T04:49:22.329Z,10.52
2022-11-17T04:51:51.477Z,11.18
2022-11-17T04:54:21.057Z,10.70
2022-11-17T04:56:49.201Z,11.23
2022-11-17T04:59:17.070Z,11.05
2022-11-17T05:01:45.104Z,10.82
2022-11-17T05:04:36.678Z,10.30
2022-11-17T05:07:05.209Z,10.70
2022-11-17T05:09:33.825Z,9.95
2022-11-17T05:12:21.873Z,9.60
2022-11-17T05:14:50.566Z,8.32
2022-11-17T05:17:17.953Z,8.73
2022-11-17T05:19:48.616Z,8.32
2022-11-17T05:22:36.495Z,9.40
2022-11-17T05:25:05.839Z,8.70
2022-11-17T05:27:34.907Z,7.90
2022-11-17T05:30:03.168Z,8.48
2022-11-17T05:32:31.216Z,7.93
2022-11-17T05:35:00.468Z,8.32
2022-11-17T05:37:28.337Z,9.13
2022-11-17T05:39:56.266Z,8.98
2022-11-17T05:42:24.273Z,9.82
2022-11-17T05:44:52.612Z,8.55
2022-11-17T05:47:20.674Z,7.85
2022-11-17T05:49:48.660Z,7.30
2022-11-17T05:52:17.951Z,7.90
2022-11-17T05:54:45.890Z,7.65
2022-11-17T05:57:17.778Z,8.52
2022-11-17T05:59:49.457Z,10.27
2022-11-17T06:02:23.564Z,7.57
2022-11-17T06:04:52.580Z,7.70
2022-11-17T06:07:22.105Z,8.23
2022-11-17T06:09:52.016Z,7.78
2022-11-17T06:12:20.000Z,6.72
2022-11-17T06:14:47.902Z,6.68
2022-11-17T06:17:22.848Z,5.30
2022-11-17T06:19:56.623Z,5.50
2022-11-17T06:22:28.181Z,5.82
2022-11-17T06:24:56.898Z,5.85
2022-11-17T06:27:25.859Z,5.07
2022-11-17T06:29:55.099Z,5.25
2022-11-17T06:32:23.472Z,10.23
2022-11-17T06:34:56.093Z,5.43
2022-11-17T06:37:26.437Z,5.30
2022-11-17T06:39:54.544Z,5.18
2022-11-17T06:42:43.898Z,4.53
2022-11-17T06:45:13.004Z,4.70
2022-11-17T06:47:40.890Z,4.97
2022-11-17T06:50:09.228Z,4.82
2022-11-17T06:52:38.555Z,15.93
2022-11-17T06:55:07.593Z,4.43
2022-11-17T06:57:35.630Z,4.05
2022-11-17T07:00:04.174Z,4.47
2022-11-17T07:02:32.770Z,3.95
2022-11-17T07:05:00.661Z,4.85
2022-11-17T07:07:28.719Z,4.18
2022-11-17T07:09:58.053Z,4.25
2022-11-17T07:12:25.964Z,4.18
2022-11-17T07:14:54.064Z,9.25
2022-11-17T07:17:21.948Z,6.28
2022-11-17T07:19:50.372Z,4.22
2022-11-17T07:22:18.248Z,4.55
2022-11-17T07:24:46.326Z,3.83
2022-11-17T07:27:15.682Z,3.92
2022-11-17T07:29:43.683Z,3.63
2022-11-17T07:32:13.719Z,3.75
2022-11-17T07:34:42.556Z,3.42
2022-11-17T07:37:10.644Z,3.40
2022-11-17T07:39:38.613Z,4.10
2022-11-17T07:42:06.575Z,3.90
2022-11-17T07:44:35.879Z,3.80
2022-11-17T07:47:03.818Z,3.92
2022-11-17T07:49:31.719Z,3.47
2022-11-17T07:51:59.676Z,3.88
2022-11-17T07:54:27.754Z,3.55
2022-11-17T07:56:55.685Z,3.22
2022-11-17T07:59:23.693Z,3.30
2022-11-17T08:01:53.025Z,3.50
2022-11-17T08:04:21.485Z,3.13
2022-11-17T08:06:49.610Z,4.50
2022-11-17T08:09:17.670Z,3.58
2022-11-17T08:11:45.675Z,4.00
2022-11-17T08:14:13.599Z,3.80
2022-11-17T08:16:41.511Z,4.15
2022-11-17T08:19:11.980Z,4.45
2022-11-17T08:21:41.059Z,4.53
2022-11-17T08:24:09.559Z,4.60
2022-11-17T08:26:37.543Z,3.75
2022-11-17T08:29:05.600Z,4.20
2022-11-17T08:31:34.167Z,4.38
2022-11-17T08:34:02.090Z,3.88
2022-11-17T08:36:31.567Z,3.97
2022-11-17T08:38:59.569Z,3.45
2022-11-17T08:41:27.430Z,3.40
2022-11-17T08:43:55.570Z,3.75
2022-11-17T08:46:23.620Z,3.72
2022-11-17T08:48:56.862Z,3.50
2022-11-17T08:51:27.148Z,3.65
2022-11-17T08:53:57.792Z,3.05
2022-11-17T08:56:25.670Z,3.60
2022-11-17T08:58:53.630Z,3.45
2022-11-17T09:01:21.596Z,2.83
2022-11-17T09:03:49.792Z,3.05
2022-11-17T09:06:20.118Z,2.93
2022-11-17T09:08:48.701Z,4.18
2022-11-17T09:11:18.328Z,2.78
2022-11-17T09:13:47.349Z,3.22
2022-11-17T09:16:16.133Z,2.85
2022-11-17T09:18:44.435Z,3.17
2022-11-17T09:21:15.113Z,3.83
2022-11-17T09:23:43.602Z,3.83
2022-11-17T09:26:14.186Z,4.55
2022-11-17T09:28:44.082Z,3.80
2022-11-17T09:31:15.206Z,4.32
2022-11-17T09:33:43.726Z,3.10
2022-11-17T09:36:12.422Z,5.28
2022-11-17T09:38:40.988Z,4.55
2022-11-17T09:41:22.587Z,3.20
2022-11-17T09:43:58.612Z,2.90
2022-11-17T09:46:33.964Z,4.53
2022-11-17T09:49:11.836Z,3.50
2022-11-17T09:51:44.498Z,4.55
2022-11-17T09:54:18.490Z,3.67
2022-11-17T09:56:48.721Z,3.08
2022-11-17T10:01:47.645Z,3.30
2022-11-17T10:04:18.516Z,3.28
2022-11-17T10:06:50.174Z,3.28
2022-11-17T10:09:25.951Z,3.38
2022-11-17T10:11:55.521Z,3.15
2022-11-17T10:14:24.873Z,3.58
2022-11-17T10:16:55.933Z,4.37
2022-11-17T10:19:25.466Z,3.72
2022-11-17T10:21:59.085Z,3.92
2022-11-17T10:24:47.421Z,4.30
2022-11-17T10:27:23.705Z,3.80
2022-11-17T10:30:01.130Z,3.25
2022-11-17T10:32:30.811Z,3.13
2022-11-17T10:35:14.623Z,2.95
2022-11-17T10:37:46.559Z,3.35
2022-11-17T10:40:24.736Z,2.92
2022-11-17T10:43:01.389Z,3.08
2022-11-17T10:45:31.222Z,3.60
2022-11-17T10:48:27.053Z,3.00
2022-11-17T10:50:56.611Z,3.33
2022-11-17T10:53:44.941Z,3.22
2022-11-17T10:56:17.083Z,3.10
2022-11-17T10:59:02.237Z,2.80
2022-11-17T11:01:33.892Z,2.75
2022-11-17T11:04:02.718Z,3.28
2022-11-17T11:06:32.187Z,3.30
2022-11-17T11:09:03.203Z,3.07
2022-11-17T11:11:41.546Z,2.90
2022-11-17T11:14:18.534Z,2.80
2022-11-17T11:16:50.532Z,3.33
2022-11-17T11:19:20.728Z,2.83
2022-11-17T11:22:11.330Z,2.72
2022-11-17T11:24:46.224Z,3.17
2022-11-17T11:27:28.434Z,2.85
2022-11-17T11:30:03.541Z,3.25
2022-11-17T11:32:43.968Z,4.05
2022-11-17T11:35:37.841Z,3.63
2022-11-17T11:38:18.132Z,3.53
2022-11-17T11:43:32.354Z,3.45
2022-11-17T11:46:09.509Z,3.42
2022-11-17T11:48:41.962Z,2.60
2022-11-17T11:51:15.746Z,2.67
2022-11-17T11:53:52.687Z,2.75
2022-11-17T11:56:26.316Z,2.40
2022-11-17T11:59:01.734Z,23.58
2022-11-17T12:01:38.265Z,5.32
2022-11-17T12:04:19.913Z,17.08
2022-11-17T12:06:54.111Z,13.80
2022-11-17T12:09:47.352Z,3.97
2022-11-17T12:12:17.335Z,3.72
2022-11-17T12:15:13.607Z,3.63
2022-11-17T12:17:59.549Z,3.47
2022-11-17T12:20:55.170Z,4.05
2022-11-17T12:23:59.522Z,3.35
2022-11-17T12:26:29.418Z,4.00
2022-11-17T12:29:28.788Z,3.92
2022-11-17T12:31:58.156Z,4.93
2022-11-17T12:34:31.837Z,5.27
2022-11-17T12:37:21.687Z,4.20
2022-11-17T12:39:57.904Z,3.65
2022-11-17T12:42:26.213Z,4.15
2022-11-17T12:44:59.169Z,4.40
2022-11-17T12:47:29.080Z,3.70
2022-11-17T12:50:28.550Z,3.67
2022-11-17T12:53:26.539Z,3.67
2022-11-17T12:56:11.177Z,4.32
2022-11-17T12:58:49.825Z,3.92
2022-11-17T13:01:25.228Z,2.88
2022-11-17T13:03:59.012Z,3.10
2022-11-17T13:06:35.895Z,4.22
2022-11-17T13:09:08.015Z,3.50
2022-11-17T13:11:36.440Z,3.97
2022-11-17T13:14:12.264Z,3.70
2022-11-17T13:16:45.759Z,6.28
2022-11-17T13:19:35.040Z,8.82
2022-11-17T13:22:05.704Z,16.58
2022-11-17T13:24:37.574Z,9.40
2022-11-17T13:27:08.544Z,5.07
2022-11-17T13:29:36.745Z,4.25
2022-11-17T13:32:20.327Z,4.03
2022-11-17T13:34:53.646Z,6.68
2022-11-17T13:37:23.351Z,4.70
2022-11-17T13:39:58.479Z,5.70
2022-11-17T13:42:28.886Z,4.97
2022-11-17T13:44:59.968Z,4.90
2022-11-17T13:47:42.282Z,4.18
2022-11-17T13:50:39.553Z,4.78
2022-11-17T13:53:22.906Z,4.68
2022-11-17T13:55:53.359Z,4.45
2022-11-17T13:58:33.586Z,4.03
2022-11-17T14:01:01.772Z,4.07
2022-11-17T14:03:38.164Z,4.32
2022-11-17T14:06:07.600Z,3.78
2022-11-17T14:08:37.006Z,4.90
2022-11-17T14:11:30.488Z,4.80
2022-11-17T14:14:01.045Z,5.80
2022-11-17T14:16:39.226Z,3.28
2022-11-17T14:19:26.103Z,3.25
2022-11-17T14:22:05.255Z,3.80
2022-11-17T14:24:33.649Z,3.97
2022-11-17T14:27:05.112Z,4.70
2022-11-17T14:29:33.183Z,4.68
2022-11-17T14:32:01.351Z,4.03
2022-11-17T14:34:29.216Z,3.20
2022-11-17T14:36:57.545Z,3.45
2022-11-17T14:39:25.468Z,3.70
2022-11-17T14:41:53.683Z,3.67
2022-11-17T14:44:23.746Z,6.75
2022-11-17T14:46:51.626Z,6.15
2022-11-17T14:49:19.523Z,6.43
2022-11-17T14:51:49.589Z,4.68
2022-11-17T14:54:17.877Z,5.95
2022-11-17T14:56:46.060Z,5.47
2022-11-17T14:59:14.986Z,5.20
2022-11-17T15:01:44.608Z,5.60
2022-11-17T15:04:48.131Z,5.23
2022-11-17T15:07:03.752Z,4.70
2022-11-17T15:09:31.769Z,4.63
2022-11-17T15:11:59.953Z,4.47
2022-11-17T15:14:28.280Z,7.15
2022-11-17T15:16:57.562Z,8.93
2022-11-17T15:19:25.421Z,9.27
2022-11-17T15:21:53.937Z,7.82
2022-11-17T15:24:22.396Z,5.30
2022-11-17T15:26:50.305Z,9.75
2022-11-17T15:29:18.649Z,6.47
2022-11-17T15:31:47.144Z,6.18
2022-11-17T15:34:20.241Z,9.30
2022-11-17T15:36:48.790Z,8.57
2022-11-17T15:39:17.349Z,4.68
2022-11-17T15:41:45.621Z,4.22
2022-11-17T15:44:14.099Z,21.45
2022-11-17T15:46:47.121Z,5.65
2022-11-17T15:49:17.466Z,54.20
2022-11-17T15:54:20.009Z,13.38
2022-11-17T15:56:49.242Z,47.55
2022-11-17T15:59:17.285Z,126.55
2022-11-17T16:01:46.084Z,86.65
2022-11-17T16:04:16.736Z,13.68
2022-11-17T16:06:47.240Z,56.60
2022-11-17T16:09:16.351Z,33.38
2022-11-17T16:11:44.784Z,13.13
2022-11-17T16:14:14.743Z,6.07
2022-11-17T16:16:43.657Z,7.32
2022-11-17T16:19:11.585Z,8.88
2022-11-17T16:21:40.890Z,43.97
2022-11-17T16:24:11.971Z,27.52
2022-11-17T16:26:39.931Z,14.05
2022-11-17T16:29:08.806Z,26.83
2022-11-17T16:31:37.988Z,15.75
2022-11-17T16:34:07.994Z,14.35
2022-11-17T16:36:38.710Z,17.20
2022-11-17T16:39:09.495Z,25.48
2022-11-17T16:41:39.072Z,26.50
2022-11-17T16:44:09.344Z,25.73
2022-11-17T16:49:06.625Z,45.92
2022-11-17T16:51:34.619Z,28.77
2022-11-17T16:54:04.988Z,23.35
2022-11-17T16:56:35.819Z,33.05
2022-11-17T16:59:04.202Z,13.73
2022-11-17T17:01:34.768Z,17.42
2022-11-17T17:04:05.580Z,15.77
2022-11-17T17:06:34.621Z,10.23
2022-11-17T17:09:04.916Z,8.00
2022-11-17T17:14:06.689Z,6.97
2022-11-17T17:16:36.142Z,8.88
2022-11-17T17:19:06.370Z,9.90
2022-11-17T17:24:03.794Z,10.73
2022-11-17T17:26:34.540Z,15.43
2022-11-17T17:29:03.668Z,26.70
2022-11-17T17:31:34.013Z,20.58
2022-11-17T17:36:30.974Z,24.23
2022-11-17T17:39:01.674Z,21.23
2022-11-17T17:41:31.321Z,20.80
2022-11-17T17:44:03.198Z,18.13
2022-11-17T17:46:32.970Z,13.85
2022-11-17T17:49:00.915Z,13.13
2022-11-17T17:51:30.153Z,12.13
2022-11-17T17:54:00.963Z,10.73
2022-11-17T17:56:30.514Z,13.18
2022-11-17T17:59:00.595Z,11.02
2022-11-17T18:01:30.329Z,10.57
2022-11-17T18:04:04.682Z,9.75
2022-11-17T18:06:37.257Z,14.40
2022-11-17T18:09:05.643Z,14.90
2022-11-17T18:11:34.384Z,12.60
2022-11-17T18:14:04.512Z,12.98
2022-11-17T18:19:03.178Z,11.00
2022-11-17T18:21:31.867Z,10.68
2022-11-17T18:24:01.591Z,11.27
2022-11-17T18:26:31.189Z,13.00
2022-11-17T18:29:01.199Z,12.13
2022-11-17T18:31:32.477Z,12.98
2022-11-17T18:34:02.889Z,14.48
2022-11-17T18:36:30.964Z,14.25
2022-11-17T18:38:59.436Z,14.30
2022-11-17T18:41:30.633Z,14.00
2022-11-17T18:43:59.064Z,14.30
2022-11-17T18:46:28.733Z,16.15
2022-11-17T18:48:58.661Z,15.00
2022-11-17T18:51:28.169Z,15.27
2022-11-17T18:53:57.907Z,12.88
2022-11-17T18:56:27.925Z,11.77
2022-11-17T18:58:56.306Z,12.05
2022-11-17T19:01:25.896Z,12.75
2022-11-17T19:03:55.633Z,12.40
2022-11-17T19:06:26.309Z,11.13
2022-11-17T19:08:54.947Z,15.57
2022-11-17T19:11:24.548Z,14.85
2022-11-17T19:13:52.618Z,15.30
2022-11-17T19:16:22.753Z,14.73
2022-11-17T19:18:52.562Z,15.13
2022-11-17T19:21:22.438Z,16.20
2022-11-17T19:23:52.468Z,17.17
2022-11-17T19:26:22.028Z,16.58
2022-11-17T19:28:50.860Z,18.17
2022-11-17T19:31:20.870Z,16.40
2022-11-17T19:33:50.006Z,16.50
2022-11-17T19:36:20.002Z,13.93
2022-11-17T19:38:50.021Z,14.52
2022-11-17T19:41:21.537Z,22.13
2022-11-17T19:43:49.915Z,17.73
2022-11-17T19:46:18.563Z,14.40
2022-11-17T19:48:46.630Z,13.43
2022-11-17T19:51:18.454Z,13.07
2022-11-17T19:53:46.734Z,11.80
2022-11-17T19:56:15.455Z,11.50
2022-11-17T19:58:45.812Z,10.30
2022-11-17T20:03:43.424Z,18.27
2022-11-17T20:06:13.345Z,35.20
2022-11-17T20:08:41.937Z,15.00
2022-11-17T20:11:12.513Z,23.38
2022-11-17T20:13:41.536Z,19.08
2022-11-17T20:16:13.908Z,29.67
2022-11-17T20:18:42.800Z,30.48
2022-11-17T20:21:13.795Z,23.83
2022-11-17T20:23:42.032Z,19.30
2022-11-17T20:26:13.680Z,17.88
2022-11-17T20:28:41.845Z,18.58
2022-11-17T20:31:13.582Z,20.17
2022-11-17T20:33:43.136Z,17.83
2022-11-17T20:36:17.528Z,18.70
2022-11-17T20:38:46.314Z,15.57
2022-11-17T20:41:14.206Z,17.10
2022-11-17T20:43:42.124Z,18.80
2022-11-17T20:46:11.680Z,18.25
2022-11-17T20:48:39.660Z,17.98
2022-11-17T20:51:10.822Z,28.00
2022-11-17T20:53:39.790Z,46.42
2022-11-17T20:56:09.833Z,22.40
2022-11-17T20:58:38.258Z,26.05
2022-11-17T21:01:09.921Z,26.95
2022-11-17T21:03:39.980Z,26.77
2022-11-17T21:06:08.805Z,27.73
2022-11-17T21:08:38.857Z,23.05
2022-11-17T21:11:08.551Z,21.67
2022-11-17T21:13:37.763Z,19.63
2022-11-17T21:16:08.205Z,22.30
2022-11-17T21:18:37.312Z,27.95
2022-11-17T21:21:09.134Z,25.13
2022-11-17T21:23:37.747Z,25.60
2022-11-17T21:26:06.841Z,22.73
2022-11-17T21:28:35.482Z,25.67
2022-11-17T21:31:06.860Z,22.95
2022-11-17T21:33:35.342Z,23.40
2022-11-17T21:36:03.818Z,21.00
2022-11-17T21:38:33.342Z,23.77
2022-11-17T21:41:06.138Z,22.83
2022-11-17T21:43:38.511Z,25.05
2022-11-17T21:46:08.438Z,32.65
2022-11-17T21:48:37.759Z,38.72
2022-11-17T21:51:07.477Z,33.27
2022-11-17T21:53:36.805Z,34.92
2022-11-17T21:56:08.045Z,40.63
2022-11-17T21:58:36.572Z,27.50
2022-11-17T22:01:08.537Z,21.88
2022-11-17T22:03:37.090Z,21.23
2022-11-17T22:06:10.365Z,21.45
2022-11-17T22:08:41.566Z,20.58
2022-11-17T22:11:12.654Z,20.25
2022-11-17T22:13:41.386Z,18.65
2022-11-17T22:16:12.358Z,17.73
2022-11-17T22:18:40.596Z,18.30
2022-11-17T22:21:09.505Z,17.50
2022-11-17T22:23:39.035Z,17.60
2022-11-17T22:26:07.332Z,16.08
2022-11-17T22:28:35.321Z,16.38
2022-11-17T22:31:06.385Z,16.52
2022-11-17T22:33:35.053Z,14.02
2022-11-17T22:36:03.854Z,16.08
2022-11-17T22:38:31.974Z,14.05
2022-11-17T22:41:02.507Z,16.67
2022-11-17T22:43:30.726Z,16.20
2022-11-17T22:46:01.748Z,16.70
2022-11-17T22:48:29.840Z,16.73
2022-11-17T22:50:59.553Z,18.85
2022-11-17T22:53:28.203Z,18.10
2022-11-17T22:55:56.470Z,16.63
2022-11-17T22:58:25.835Z,16.23
2022-11-17T23:00:54.043Z,15.50
2022-11-17T23:03:22.007Z,15.57
2022-11-17T23:05:50.111Z,14.63
2022-11-17T23:08:18.091Z,14.63
2022-11-17T23:10:46.126Z,14.32
2022-11-17T23:13:14.037Z,13.75
2022-11-17T23:15:43.487Z,14.80
2022-11-17T23:18:11.421Z,16.20
2022-11-17T23:20:40.242Z,14.95
2022-11-17T23:23:08.341Z,14.80
2022-11-17T23:25:36.741Z,16.30
2022-11-17T23:28:05.166Z,17.85
2022-11-17T23:30:34.294Z,17.23
2022-11-17T23:33:03.844Z,16.33
2022-11-17T23:35:31.781Z,17.35
2022-11-17T23:38:00.057Z,15.55
2022-11-17T23:40:28.041Z,15.63
2022-11-17T23:42:56.036Z,15.30
2022-11-17T23:45:23.970Z,16.17
2022-11-17T23:47:51.787Z,18.33
2022-11-17T23:50:21.361Z,17.13
2022-11-17T23:52:49.227Z,16.75
2022-11-17T23:55:17.406Z,15.65
2022-11-17T23:57:45.499Z,15.57
